Terminal Aerodrome Forecast
Issued by NWS Sterling, VA

Current Version | Previous Version | Graphics & Text | Print | Product List | Glossary Off
Versions: 1 2 3 4 5 6 7 8 9 10 11 12 13 14 15 16 17 18 19 20 21 22 23

000
FTUS41 KLWX 281444 AAA
TAFDCA
TAF AMD
KDCA 281444Z 2815/2912 32014G23KT P6SM FEW060
     FM282300 34007KT P6SM SCT050
     FM290300 VRB03KT P6SM FEW080=

USA.gov is the U.S. government's official web portal to all federal, state and local government web resources and services.